Celtic Sea — D5HH9 — position and weather

sailwx.info

Track history (hours):
 
Tides and Currents Weather Stations Pressure Air Temp Water Temp Dewpoint Dewpoint Depression Visibility Wind Speed Wind Dir Waves Ship Positions

Celtic Sea

Last reported at 2017-Nov-08 18:14 UTC. Time now 2017-Nov-25 07:58 UTC.
Position N 01°16' E 103°22'.
Warning: this ship's position is 16 days out of date.

Length 239 m; draft 8.2 m.

Type: Tanker. MMSI: 636016693.

Date/timePositionNaut miles runAvg speedWind from/ knotsBaromVisibWave heightAir tempDewpointWater temp
2017-Nov-08 18:14N 01°16' E 103°22'3 9.1
2017-Nov-08 17:57N 01°15' E 103°24'510.2
2017-Nov-08 17:30N 01°13' E 103°29'511.0
2017-Nov-08 17:00N 01°12' E 103°34'611.0
2017-Nov-08 16:30N 01°11' E 103°40'510.8
2017-Nov-08 16:00N 01°08' E 103°44'511.0
2017-Nov-08 15:30N 01°11' E 103°49'611.7
2017-Nov-08 15:00N 01°13' E 103°54'611.3
2017-Nov-08 14:30N 01°15' E 103°60'  
Track history (hours):
 
Tides and Currents Weather Stations Pressure Air Temp Water Temp Dewpoint Dewpoint Depression Visibility Wind Speed Wind Dir Waves Ship Positions

Celtic Sea

Last reported at 2017-Nov-08 18:14 UTC. Time now 2017-Nov-25 07:58 UTC.
Position N 01°16' E 103°22'.
Warning: this ship's position is 16 days out of date.

Length 239 m; draft 8.2 m.

Type: Tanker. MMSI: 636016693.

Date/timePositionNaut miles runAvg speedWind from/ knotsBaromVisibWave heightAir tempDewpointWater temp
2017-Nov-08 18:14N 01°16' E 103°22'3 9.1
2017-Nov-08 17:57N 01°15' E 103°24'510.2
2017-Nov-08 17:30N 01°13' E 103°29'511.0
2017-Nov-08 17:00N 01°12' E 103°34'611.0
2017-Nov-08 16:30N 01°11' E 103°40'510.8
2017-Nov-08 16:00N 01°08' E 103°44'511.0
2017-Nov-08 15:30N 01°11' E 103°49'611.7
2017-Nov-08 15:00N 01°13' E 103°54'611.3
2017-Nov-08 14:30N 01°15' E 103°60'  

Dump ship's entire track history